createdAt,value
2022-09-23T00:00:10.070Z,65.75098
2022-09-23T00:02:10.225Z,65.92578
2022-09-23T00:04:10.073Z,65.57715
2022-09-23T00:06:10.114Z,65.53418
2022-09-23T00:08:10.056Z,65.04102
2022-09-23T00:10:10.077Z,65.37305
2022-09-23T00:13:47.304Z,65.28711
2022-09-23T00:15:47.261Z,65.17578
2022-09-23T00:17:47.248Z,65.14941
2022-09-23T00:19:47.239Z,65.01172
2022-09-23T00:21:47.296Z,65.10938
2022-09-23T00:23:47.287Z,65.02539
2022-09-23T00:25:47.272Z,65.07617
2022-09-23T00:29:04.694Z,65.41016
2022-09-23T00:31:04.772Z,65.37207
2022-09-23T00:33:04.613Z,64.94824
2022-09-23T00:35:04.621Z,65.20215
2022-09-23T00:37:04.593Z,64.89258
2022-09-23T00:39:04.999Z,64.66309
2022-09-23T00:41:04.816Z,65.53125
2022-09-23T00:44:26.117Z,65.49219
2022-09-23T00:46:26.193Z,65.38086
2022-09-23T00:48:26.045Z,65.47168
2022-09-23T00:50:26.101Z,65.33984
2022-09-23T00:52:26.068Z,65.74805
2022-09-23T00:54:26.101Z,65.70508
2022-09-23T00:56:26.080Z,65.66699
2022-09-23T00:58:38.779Z,65.72168
2022-09-23T01:00:38.833Z,65.5293
2022-09-23T01:02:38.863Z,65.50586
2022-09-23T01:04:38.818Z,65.50684
2022-09-23T01:06:38.804Z,65.61426
2022-09-23T01:08:38.820Z,66.11816
2022-09-23T01:10:38.847Z,65.90527
2022-09-23T01:12:38.798Z,65.86035
2022-09-23T01:13:49.128Z,65.97754
2022-09-23T01:15:49.167Z,65.87891
2022-09-23T01:17:49.116Z,65.68945
2022-09-23T01:19:49.122Z,65.33398
2022-09-23T01:21:49.148Z,65.80176
2022-09-23T01:23:49.167Z,66.01465
2022-09-23T01:25:49.135Z,66.30273
2022-09-23T01:27:49.144Z,66.16992
2022-09-23T01:29:54.911Z,65.87402
2022-09-23T01:31:54.980Z,65.90234
2022-09-23T01:33:54.937Z,65.73438
2022-09-23T01:35:54.974Z,65.8125
2022-09-23T01:37:54.902Z,65.78223
2022-09-23T01:39:54.931Z,65.77246
2022-09-23T01:41:54.927Z,65.83691
2022-09-23T01:44:35.261Z,65.85352
2022-09-23T01:46:35.215Z,65.65527
2022-09-23T01:48:35.489Z,65.83887
2022-09-23T01:50:35.188Z,65.76758
2022-09-23T01:52:35.212Z,65.62891
2022-09-23T01:54:35.174Z,65.56738
2022-09-23T01:56:35.144Z,65.89941
2022-09-23T01:59:19.718Z,66.23438
2022-09-23T02:01:19.910Z,66.0918
2022-09-23T02:03:19.737Z,66.21387
2022-09-23T02:05:19.774Z,66.35742
2022-09-23T02:07:19.700Z,66.56836
2022-09-23T02:09:19.697Z,66.36621
2022-09-23T02:11:19.727Z,66.40723
2022-09-23T02:13:19.703Z,66.7041
2022-09-23T02:14:42.773Z,66.54199
2022-09-23T02:16:42.958Z,66.55957
2022-09-23T02:18:42.736Z,66.77148
2022-09-23T02:20:42.798Z,66.86426
2022-09-23T02:22:42.741Z,66.63574
2022-09-23T02:24:42.752Z,66.49902
2022-09-23T02:26:42.748Z,66.6875
2022-09-23T02:29:41.522Z,66.52637
2022-09-23T02:31:41.669Z,66.34082
2022-09-23T02:33:41.561Z,66.38379
2022-09-23T02:35:41.533Z,66.4043
2022-09-23T02:37:41.554Z,66.41602
2022-09-23T02:39:41.531Z,66.43359
2022-09-23T02:41:41.560Z,66.875
2022-09-23T02:43:41.516Z,66.43066
2022-09-23T02:44:48.685Z,66.74512
2022-09-23T02:46:48.695Z,67.10547
2022-09-23T02:48:48.776Z,68.5625
2022-09-23T02:50:48.676Z,67.50195
2022-09-23T02:52:48.708Z,67.73047
2022-09-23T02:54:48.660Z,67.83984
2022-09-23T02:56:48.713Z,67.55762
2022-09-23T02:58:48.667Z,67.28906
2022-09-23T03:00:21.318Z,67.48047
2022-09-23T03:02:21.449Z,67.09668
2022-09-23T03:04:21.333Z,67.31543
2022-09-23T03:06:21.305Z,66.97949
2022-09-23T03:08:21.410Z,66.52148
2022-09-23T03:10:21.296Z,66.33691
2022-09-23T03:12:21.350Z,66.59277
2022-09-23T03:15:19.475Z,66.44434
2022-09-23T03:17:19.587Z,66.59082
2022-09-23T03:19:19.512Z,66.61719
2022-09-23T03:21:19.541Z,66.83105
2022-09-23T03:23:19.502Z,67.18359
2022-09-23T03:25:19.495Z,66.52148
2022-09-23T03:27:19.539Z,66.90234
2022-09-23T03:30:52.881Z,66.54199
2022-09-23T03:32:52.933Z,66.8916
2022-09-23T03:34:52.561Z,66.49512
2022-09-23T03:36:52.831Z,66.6084
2022-09-23T03:38:52.756Z,66.85547
2022-09-23T03:40:52.925Z,66.68945
2022-09-23T03:42:52.905Z,67.03418
2022-09-23T03:45:44.361Z,67.22559
2022-09-23T03:47:44.455Z,66.78906
2022-09-23T03:49:44.115Z,66.54199
2022-09-23T03:51:45.032Z,66.87207
2022-09-23T03:53:44.197Z,67.0918
2022-09-23T03:55:44.116Z,67.24414
2022-09-23T03:57:44.497Z,66.7627
2022-09-23T04:01:01.345Z,66.66992
2022-09-23T04:03:01.338Z,66.89648
2022-09-23T04:05:01.298Z,67.20605
2022-09-23T04:07:01.124Z,67.2041
2022-09-23T04:09:01.193Z,67.1582
2022-09-23T04:11:01.150Z,67.80078
2022-09-23T04:13:01.146Z,67.64648
2022-09-23T04:16:12.416Z,67.46777
2022-09-23T04:18:12.236Z,67.03125
2022-09-23T04:20:12.296Z,67.3252
2022-09-23T04:22:12.263Z,66.87891
2022-09-23T04:24:12.229Z,67.26172
2022-09-23T04:26:12.205Z,67.49414
2022-09-23T04:28:12.263Z,67.10254
2022-09-23T04:31:19.782Z,67.55469
2022-09-23T04:33:19.791Z,67.27344
2022-09-23T04:35:19.735Z,67.21484
2022-09-23T04:37:19.773Z,66.91016
2022-09-23T04:39:19.755Z,67.6875
2022-09-23T04:41:19.713Z,67.00098
2022-09-23T04:43:19.786Z,66.40234
2022-09-23T04:46:46.513Z,67.4834
2022-09-23T04:48:46.829Z,67.04004
2022-09-23T04:50:46.400Z,66.05566
2022-09-23T04:52:46.397Z,66.38574
2022-09-23T04:54:46.463Z,65.94238
2022-09-23T04:56:46.359Z,66.11035
2022-09-23T04:58:46.375Z,66.44043
2022-09-23T05:01:48.371Z,65.63379
2022-09-23T05:03:48.177Z,66.36816
2022-09-23T05:05:48.179Z,65.96875
2022-09-23T05:07:48.191Z,65.33691
2022-09-23T05:09:48.480Z,65.16211
2022-09-23T05:11:48.346Z,65.28809
2022-09-23T05:13:48.251Z,64.69141
2022-09-23T05:16:43.647Z,66.25098
2022-09-23T05:18:43.269Z,66.7373
2022-09-23T05:20:43.237Z,66.91309
2022-09-23T05:22:43.269Z,66.96191
2022-09-23T05:24:43.336Z,67.37598
2022-09-23T05:26:43.223Z,68.22949
2022-09-23T05:28:43.257Z,68.45898
2022-09-23T05:31:55.872Z,67.7168
2022-09-23T05:33:55.663Z,67.98633
2022-09-23T05:35:55.736Z,67.49512
2022-09-23T05:37:55.725Z,67.53809
2022-09-23T05:39:55.638Z,66.25
2022-09-23T05:41:55.663Z,65.85645
2022-09-23T05:43:55.723Z,67.49121
2022-09-23T05:47:05.249Z,67.94043
2022-09-23T05:49:05.197Z,67.28809
2022-09-23T05:51:05.121Z,67.40527
2022-09-23T05:53:05.148Z,67.83008
2022-09-23T05:55:05.133Z,69.04297
2022-09-23T05:57:05.401Z,68.83984
2022-09-23T05:59:05.221Z,68.2207
2022-09-23T06:02:22.350Z,67.77051
2022-09-23T06:04:22.277Z,67.86133
2022-09-23T06:06:22.248Z,68.52441
2022-09-23T06:08:22.275Z,68.64453
2022-09-23T06:10:22.318Z,68.55957
2022-09-23T06:12:22.254Z,68.12598
2022-09-23T06:14:22.353Z,68.32715
2022-09-23T06:17:13.413Z,70.56348
2022-09-23T06:19:13.471Z,69.63965
2022-09-23T06:21:13.425Z,68.84668
2022-09-23T06:23:13.433Z,68.2627
2022-09-23T06:25:13.433Z,68.59473
2022-09-23T06:27:13.477Z,67.69141
2022-09-23T06:29:13.418Z,67.42969
2022-09-23T06:31:14.320Z,67.05957
2022-09-23T06:32:21.520Z,67.30371
2022-09-23T06:34:21.922Z,68.32129
2022-09-23T06:36:41.773Z,68.25879
2022-09-23T06:38:21.516Z,67.65723
2022-09-23T06:40:21.498Z,67.3877
2022-09-23T06:42:21.462Z,67.7373
2022-09-23T06:44:21.435Z,67.14746
2022-09-23T06:46:21.594Z,68.03516
2022-09-23T06:47:33.701Z,67.83398
2022-09-23T06:49:33.777Z,68.30371
2022-09-23T06:51:33.710Z,67.72363
2022-09-23T06:53:33.723Z,67.17969
2022-09-23T06:55:33.722Z,67.41113
2022-09-23T06:57:33.702Z,67.74414
2022-09-23T06:59:33.751Z,67.62012
2022-09-23T07:01:33.940Z,67.66309
2022-09-23T07:02:42.766Z,67.63379
2022-09-23T07:04:42.428Z,69.0332
2022-09-23T07:06:42.400Z,68.9082
2022-09-23T07:08:42.450Z,69.06348
2022-09-23T07:10:42.399Z,67.88086
2022-09-23T07:12:42.430Z,67.98438
2022-09-23T07:14:42.529Z,66.15625
2022-09-23T07:16:42.407Z,67.36426
2022-09-23T07:18:17.503Z,66.60254
2022-09-23T07:20:17.488Z,65.68945
2022-09-23T07:22:17.446Z,64.99219
2022-09-23T07:24:17.475Z,63.79492
2022-09-23T07:26:17.448Z,62.94238
2022-09-23T07:28:17.539Z,60.79785
2022-09-23T07:30:25.659Z,62.1416
2022-09-23T07:33:37.460Z,61.60449
2022-09-23T07:35:36.915Z,61.73145
2022-09-23T07:37:36.923Z,61.44336
2022-09-23T07:39:36.848Z,60.59375
2022-09-23T07:41:36.830Z,60.16992
2022-09-23T07:43:36.839Z,60.45703
2022-09-23T07:45:36.832Z,60.64941
2022-09-23T07:48:25.138Z,60.0498
2022-09-23T07:50:25.204Z,59.29102
2022-09-23T07:52:25.147Z,57.22852
2022-09-23T07:54:25.152Z,56.77051
2022-09-23T07:56:25.129Z,54.48438
2022-09-23T07:58:25.112Z,56.16309
2022-09-23T08:00:25.158Z,55.80273
2022-09-23T08:03:27.964Z,54.12305
2022-09-23T08:05:27.965Z,53.81445
2022-09-23T08:07:27.924Z,51.51758
2022-09-23T08:09:27.951Z,51.90625
2022-09-23T08:11:27.930Z,50.42285
2022-09-23T08:13:27.916Z,51.83594
2022-09-23T08:15:27.989Z,51.20996
2022-09-23T08:17:30.716Z,50.13184
2022-09-23T08:18:34.295Z,50.06445
2022-09-23T08:20:34.256Z,50.54004
2022-09-23T08:22:34.234Z,50.12988
2022-09-23T08:24:34.278Z,48.9043
2022-09-23T08:26:34.213Z,49.91211
2022-09-23T08:28:34.393Z,48.34082
2022-09-23T08:30:34.252Z,49.95996
2022-09-23T08:32:34.235Z,48.61719
2022-09-23T08:33:57.435Z,48.75098
2022-09-23T08:35:57.460Z,48.28809
2022-09-23T08:37:57.438Z,48.44629
2022-09-23T08:39:57.464Z,48.64453
2022-09-23T08:41:59.319Z,47.36426
2022-09-23T08:43:57.447Z,46.7168
2022-09-23T08:45:57.566Z,47.36523
2022-09-23T08:49:44.501Z,46.53906
2022-09-23T08:51:44.525Z,46.98242
2022-09-23T08:53:44.591Z,46.14844
2022-09-23T08:55:44.503Z,46.00195
2022-09-23T08:58:02.490Z,45.05078
2022-09-23T08:59:44.503Z,44.31934
2022-09-23T09:01:44.574Z,45.6123
2022-09-23T09:04:30.317Z,43.21289
2022-09-23T09:06:30.241Z,45.22363
2022-09-23T09:08:30.346Z,43.94824
2022-09-23T09:10:30.258Z,43.42676
2022-09-23T09:12:30.410Z,44.77148
2022-09-23T09:14:30.489Z,47.0498
2022-09-23T09:16:58.748Z,46.22363
2022-09-23T09:19:28.942Z,46.81934
2022-09-23T09:21:28.985Z,44.82617
2022-09-23T09:23:29.298Z,44.70508
2022-09-23T09:25:34.537Z,43.4502
2022-09-23T09:27:28.953Z,44.92578
2022-09-23T09:29:36.451Z,43.59668
2022-09-23T09:31:29.313Z,43.38379
2022-09-23T09:34:45.909Z,42.1582
2022-09-23T09:36:45.698Z,41.30566
2022-09-23T09:38:45.794Z,39.27148
2022-09-23T09:40:46.152Z,40.48926
2022-09-23T09:42:45.709Z,40.16016
2022-09-23T09:44:45.872Z,40.39551
2022-09-23T09:46:46.073Z,40.65527
2022-09-23T09:50:00.995Z,39.9502
2022-09-23T09:52:01.001Z,37.9668
2022-09-23T09:54:00.958Z,40.55859
2022-09-23T09:56:05.839Z,39.46484
2022-09-23T09:58:00.891Z,40.50391
2022-09-23T10:00:00.911Z,37.41602
2022-09-23T10:02:00.933Z,38.23535
2022-09-23T10:05:40.029Z,39.21484
2022-09-23T10:07:40.001Z,38.60547
2022-09-23T10:09:40.010Z,39.26855
2022-09-23T10:11:40.131Z,39.99414
2022-09-23T10:13:40.067Z,40.08984
2022-09-23T10:15:45.102Z,39.05859
2022-09-23T10:17:40.021Z,38.7207
2022-09-23T10:19:53.991Z,38.7998
2022-09-23T10:21:54.020Z,39.20703
2022-09-23T10:23:54.039Z,38.25195
2022-09-23T10:25:54.027Z,37.30762
2022-09-23T10:27:54.008Z,37.74023
2022-09-23T10:29:53.998Z,36.08301
2022-09-23T10:31:54.038Z,35.42285
2022-09-23T10:33:54.041Z,36.36035
2022-09-23T10:35:45.611Z,36.63867
2022-09-23T10:37:45.611Z,35.42383
2022-09-23T10:39:45.603Z,35.875
2022-09-23T10:41:45.628Z,37.39355
2022-09-23T10:43:45.658Z,36.0957
2022-09-23T10:45:45.827Z,35.69336
2022-09-23T10:47:45.666Z,36.44922
2022-09-23T10:50:40.809Z,36.22852
2022-09-23T10:52:40.791Z,34.97949
2022-09-23T10:54:40.829Z,34.76465
2022-09-23T10:56:40.843Z,34.46289
2022-09-23T10:58:40.811Z,35.08203
2022-09-23T11:00:40.832Z,35.0791
2022-09-23T11:02:40.815Z,35.16992
2022-09-23T11:05:43.264Z,35.40527
2022-09-23T11:07:43.068Z,33.69629
2022-09-23T11:09:43.154Z,32.74609
2022-09-23T11:11:43.119Z,34.0166
2022-09-23T11:13:43.111Z,32.93848
2022-09-23T11:15:43.131Z,32.32031
2022-09-23T11:17:43.096Z,32.64648
2022-09-23T11:21:25.889Z,35.12695
2022-09-23T11:23:25.833Z,34.44434
2022-09-23T11:25:25.878Z,35.33105
2022-09-23T11:27:25.859Z,35.62207
2022-09-23T11:29:25.828Z,35.1582
2022-09-23T11:31:25.879Z,34.33594
2022-09-23T11:33:25.843Z,35.01465
2022-09-23T11:36:14.598Z,34.83398
2022-09-23T11:38:14.654Z,35.64355
2022-09-23T11:40:14.967Z,34.83398
2022-09-23T11:42:14.615Z,34.7627
2022-09-23T11:44:14.571Z,33.52148
2022-09-23T11:46:14.708Z,33.51172
2022-09-23T11:48:14.615Z,34.52148
2022-09-23T11:51:02.279Z,33.66504
2022-09-23T11:53:02.308Z,34.90625
2022-09-23T11:55:14.708Z,33.9082
2022-09-23T11:57:02.247Z,33.50977
2022-09-23T11:59:02.366Z,33.85449
2022-09-23T12:01:02.230Z,35.03613
2022-09-23T12:03:06.753Z,34.07617
2022-09-23T12:06:32.223Z,34.17969
2022-09-23T12:08:32.136Z,35.12988
2022-09-23T12:10:32.146Z,34.16016
2022-09-23T12:12:32.153Z,34.29297
2022-09-23T12:14:32.266Z,33.6123
2022-09-23T12:16:32.198Z,32.75
2022-09-23T12:18:32.116Z,33.28516
2022-09-23T12:21:51.409Z,35.0752
2022-09-23T12:23:40.410Z,35.85645
2022-09-23T12:25:40.484Z,34.59082
2022-09-23T12:27:40.505Z,34.57324
2022-09-23T12:29:40.493Z,35.16504
2022-09-23T12:31:44.148Z,34.93555
2022-09-23T12:33:40.417Z,34.77637
2022-09-23T12:37:09.791Z,34.54297
2022-09-23T12:39:09.805Z,33.2666
2022-09-23T12:41:09.790Z,34.59277
2022-09-23T12:43:09.737Z,34.21973
2022-09-23T12:45:09.711Z,33.19141
2022-09-23T12:47:09.833Z,33.60254
2022-09-23T12:49:09.744Z,34.47461
2022-09-23T12:51:40.286Z,34.96875
2022-09-23T12:53:40.361Z,35.00098
2022-09-23T12:55:40.303Z,35.05859
2022-09-23T12:57:40.266Z,34.02539
2022-09-23T12:59:40.241Z,34.01563
2022-09-23T13:01:40.573Z,34.32324
2022-09-23T13:03:40.222Z,35.25
2022-09-23T13:05:40.270Z,33.96094
2022-09-23T13:07:41.096Z,34.44238
2022-09-23T13:09:41.117Z,34.6084
2022-09-23T13:11:41.111Z,34.24121
2022-09-23T13:13:41.147Z,34.25195
2022-09-23T13:15:41.077Z,33.77832
2022-09-23T13:17:41.073Z,34.60449
2022-09-23T13:19:41.053Z,34.31836
2022-09-23T13:22:21.585Z,33.65527
2022-09-23T13:24:21.313Z,33.95605
2022-09-23T13:26:21.333Z,34.27441
2022-09-23T13:28:21.328Z,33.4668
2022-09-23T13:30:26.560Z,33.33496
2022-09-23T13:32:21.407Z,33.70313
2022-09-23T13:34:21.389Z,33.9043
2022-09-23T13:37:48.708Z,33.1543
2022-09-23T13:39:48.743Z,32.27051
2022-09-23T13:41:48.783Z,33.90332
2022-09-23T13:43:48.681Z,34.05371
2022-09-23T13:45:48.788Z,33.56348
2022-09-23T13:47:48.738Z,34.35254
2022-09-23T13:49:48.804Z,35.88281
2022-09-23T13:53:02.488Z,34.44629
2022-09-23T13:55:02.501Z,33.09277
2022-09-23T13:57:02.526Z,33.28613
2022-09-23T13:59:02.545Z,33.07422
2022-09-23T14:01:02.699Z,35.52441
2022-09-23T14:03:02.461Z,33.78516
2022-09-23T14:05:02.643Z,33.28809
2022-09-23T14:07:53.546Z,34.08496
2022-09-23T14:09:53.545Z,33.69629
2022-09-23T14:11:53.401Z,34.02344
2022-09-23T14:13:53.486Z,33.63672
2022-09-23T14:15:53.369Z,33.23242
2022-09-23T14:17:53.328Z,32.80762
2022-09-23T14:19:53.635Z,32.0332
2022-09-23T14:23:05.029Z,32.50977
2022-09-23T14:25:05.057Z,33.1582
2022-09-23T14:27:05.051Z,33.39453
2022-09-23T14:29:05.416Z,32.5918
2022-09-23T14:31:05.009Z,33.58105
2022-09-23T14:33:08.898Z,32.57324
2022-09-23T14:35:05.014Z,32.53125
2022-09-23T14:37:55.621Z,33.4834
2022-09-23T14:39:58.098Z,33.46484
2022-09-23T14:41:55.616Z,33.5752
2022-09-23T14:43:55.618Z,34.25781
2022-09-23T14:45:55.917Z,33.01855
2022-09-23T14:47:55.616Z,33.55664
2022-09-23T14:49:55.688Z,34.18164
2022-09-23T14:51:55.643Z,34.1123
2022-09-23T14:53:21.568Z,34.46582
2022-09-23T14:55:21.613Z,33.65137
2022-09-23T14:57:21.608Z,34.36914
2022-09-23T14:59:21.657Z,34.49414
2022-09-23T15:01:21.823Z,34.13477
2022-09-23T15:03:21.713Z,33.9834
2022-09-23T15:05:21.628Z,33.36426
2022-09-23T15:08:40.973Z,35.62012
2022-09-23T15:10:40.993Z,34.95898
2022-09-23T15:12:40.964Z,35.47754
2022-09-23T15:14:41.429Z,37.22363
2022-09-23T15:16:41.234Z,35.71875
2022-09-23T15:18:40.980Z,37.8877
2022-09-23T15:20:41.070Z,36.02832
2022-09-23T15:24:02.134Z,36.91602
2022-09-23T15:26:01.936Z,37.61621
2022-09-23T15:28:01.968Z,37.19629
2022-09-23T15:30:01.975Z,35.78516
2022-09-23T15:32:02.117Z,36.36621
2022-09-23T15:34:01.999Z,36.97754
2022-09-23T15:36:02.044Z,37.77051
2022-09-23T15:38:45.255Z,38.31152
2022-09-23T15:40:45.382Z,38.32324
2022-09-23T15:42:45.241Z,37.32129
2022-09-23T15:44:45.436Z,38.31445
2022-09-23T15:46:45.228Z,37.12793
2022-09-23T15:48:45.367Z,38.73438
2022-09-23T15:50:45.259Z,39.06934
2022-09-23T15:54:36.025Z,38.73828
2022-09-23T15:56:35.921Z,39.26465
2022-09-23T15:58:35.888Z,38.89746
2022-09-23T16:00:35.957Z,39.72461
2022-09-23T16:02:36.119Z,39.86328
2022-09-23T16:04:35.897Z,39.97754
2022-09-23T16:06:35.899Z,40.3291
2022-09-23T16:08:55.049Z,41.1377
2022-09-23T16:10:55.073Z,41.63574
2022-09-23T16:12:55.028Z,41.98145
2022-09-23T16:14:55.008Z,41.90625
2022-09-23T16:16:55.219Z,42.19434
2022-09-23T16:18:54.992Z,42.69043
2022-09-23T16:20:55.048Z,42.71191
2022-09-23T16:22:55.024Z,43.03613
2022-09-23T16:24:10.803Z,43.04004
2022-09-23T16:26:10.831Z,43.50391
2022-09-23T16:28:10.827Z,43.50195
2022-09-23T16:30:10.767Z,43.18359
2022-09-23T16:32:10.745Z,44.33008
2022-09-23T16:34:10.795Z,44.44727
2022-09-23T16:36:10.784Z,44.38574
2022-09-23T16:39:56.748Z,44.48145
2022-09-23T16:41:56.771Z,44.77539
2022-09-23T16:43:56.745Z,45.27441
2022-09-23T16:45:56.950Z,45.49512
2022-09-23T16:47:56.702Z,45.95605
2022-09-23T16:49:56.741Z,46.38281
2022-09-23T16:51:56.800Z,46.59668
2022-09-23T16:55:13.672Z,46.91406
2022-09-23T16:57:13.676Z,47.31934
2022-09-23T16:59:13.594Z,47.69141
2022-09-23T17:01:13.705Z,47.90234
2022-09-23T17:03:13.586Z,48.08594
2022-09-23T17:05:13.696Z,48.46973
2022-09-23T17:07:13.640Z,48.97168
2022-09-23T17:09:54.458Z,49.39063
2022-09-23T17:11:54.511Z,49.33594
2022-09-23T17:13:54.459Z,49.58301
2022-09-23T17:15:54.563Z,50.1875
2022-09-23T17:17:54.506Z,50.42969
2022-09-23T17:19:54.462Z,50.47168
2022-09-23T17:21:54.439Z,50.43652
2022-09-23T17:24:51.117Z,50.97266
2022-09-23T17:26:57.171Z,51.66504
2022-09-23T17:28:51.103Z,51.84766
2022-09-23T17:30:51.133Z,51.78711
2022-09-23T17:32:51.166Z,51.69824
2022-09-23T17:34:51.079Z,52.10156
2022-09-23T17:36:51.050Z,52.58105
2022-09-23T17:40:32.543Z,52.22852
2022-09-23T17:42:32.289Z,52.2041
2022-09-23T17:44:32.351Z,52.30273
2022-09-23T17:46:32.229Z,53.1123
2022-09-23T17:48:32.204Z,53.22559
2022-09-23T17:50:32.245Z,53.16211
2022-09-23T17:52:32.242Z,53.24414
2022-09-23T17:55:13.222Z,53.35547
2022-09-23T17:57:13.243Z,53.53906
2022-09-23T17:59:13.212Z,54.18457
2022-09-23T18:01:13.583Z,54.24609
2022-09-23T18:03:13.306Z,54.44336
2022-09-23T18:05:13.215Z,54.33691
2022-09-23T18:07:13.206Z,54.53223
2022-09-23T18:10:49.740Z,54.75879
2022-09-23T18:12:49.832Z,54.58691
2022-09-23T18:14:49.800Z,54.80078
2022-09-23T18:16:49.708Z,54.91309
2022-09-23T18:18:49.763Z,54.87012
2022-09-23T18:20:49.720Z,55.04883
2022-09-23T18:22:49.789Z,55.07422
2022-09-23T18:25:39.930Z,55.16797
2022-09-23T18:27:28.617Z,54.93262
2022-09-23T18:29:28.584Z,55.62305
2022-09-23T18:31:28.669Z,55.60156
2022-09-23T18:33:28.680Z,55.74121
2022-09-23T18:35:28.646Z,55.80859
2022-09-23T18:37:28.811Z,55.94434
2022-09-23T18:40:25.154Z,55.93457
2022-09-23T18:42:25.166Z,55.97363
2022-09-23T18:44:25.086Z,56.21973
2022-09-23T18:46:25.269Z,56.4209
2022-09-23T18:48:25.396Z,56.125
2022-09-23T18:50:25.165Z,56.0918
2022-09-23T18:52:24.982Z,56.38379
2022-09-23T18:54:25.109Z,56.71875
2022-09-23T18:56:22.365Z,56.50586
2022-09-23T18:58:22.315Z,56.78809
2022-09-23T19:00:22.469Z,56.74805
2022-09-23T19:02:22.402Z,56.7041
2022-09-23T19:04:22.364Z,56.84277
2022-09-23T19:06:22.380Z,56.81055
2022-09-23T19:08:22.364Z,56.95117
2022-09-23T19:11:05.446Z,56.87305
2022-09-23T19:13:05.402Z,57.45215
2022-09-23T19:15:05.395Z,57.59277
2022-09-23T19:17:05.428Z,57.33496
2022-09-23T19:19:05.352Z,57.56445
2022-09-23T19:21:07.293Z,57.62305
2022-09-23T19:23:05.418Z,57.68555
2022-09-23T19:26:39.410Z,57.95117
2022-09-23T19:28:40.689Z,57.6543
2022-09-23T19:30:39.441Z,58.04199
2022-09-23T19:32:39.402Z,57.57324
2022-09-23T19:34:39.551Z,57.7041
2022-09-23T19:36:39.511Z,57.61719
2022-09-23T19:38:39.341Z,57.52441
2022-09-23T19:41:58.795Z,57.9248
2022-09-23T19:43:58.745Z,57.88086
2022-09-23T19:45:58.734Z,57.93457
2022-09-23T19:47:58.689Z,57.91113
2022-09-23T19:49:58.775Z,58.08008
2022-09-23T19:51:58.727Z,58.31445
2022-09-23T19:53:58.871Z,58.51172
2022-09-23T19:56:37.124Z,58.48633
2022-09-23T19:58:37.109Z,58.44434
2022-09-23T20:00:37.149Z,58.53027
2022-09-23T20:02:37.031Z,58.64355
2022-09-23T20:04:37.086Z,58.82227
2022-09-23T20:06:37.018Z,58.42871
2022-09-23T20:08:37.024Z,58.87793
2022-09-23T20:11:48.519Z,59.27637
2022-09-23T20:13:48.501Z,59.04297
2022-09-23T20:15:48.650Z,59.23828
2022-09-23T20:17:48.466Z,59.46094
2022-09-23T20:19:48.461Z,59.10547
2022-09-23T20:21:48.497Z,59.40527
2022-09-23T20:23:48.470Z,59.17578
2022-09-23T20:26:38.462Z,59.15723
2022-09-23T20:28:38.438Z,59.53223
2022-09-23T20:30:38.433Z,59.96582
2022-09-23T20:32:44.715Z,59.8125
2022-09-23T20:34:38.433Z,59.92676
2022-09-23T20:36:38.442Z,59.81348
2022-09-23T20:38:38.471Z,59.8623
2022-09-23T20:40:38.617Z,59.74609
2022-09-23T20:42:13.779Z,59.97168
2022-09-23T20:44:13.759Z,60.20996
2022-09-23T20:46:13.917Z,60.83301
2022-09-23T20:48:13.731Z,60.77344
2022-09-23T20:50:13.715Z,60.86426
2022-09-23T20:52:13.745Z,60.97656
2022-09-23T20:54:13.744Z,60.93848
2022-09-23T20:57:48.055Z,60.33105
2022-09-23T20:59:48.074Z,60.21875
2022-09-23T21:01:48.285Z,60.48047
2022-09-23T21:03:48.090Z,60.58105
2022-09-23T21:05:48.036Z,60.42188
2022-09-23T21:07:48.087Z,60.46973
2022-09-23T21:09:48.308Z,60.60059
2022-09-23T21:12:45.677Z,61.52637
2022-09-23T21:14:45.589Z,61.28027
2022-09-23T21:16:45.839Z,60.93555
2022-09-23T21:18:45.808Z,60.82031
2022-09-23T21:20:45.565Z,61.11621
2022-09-23T21:22:45.572Z,61.20605
2022-09-23T21:28:09.941Z,63.0918
2022-09-23T21:30:09.952Z,62.71191
2022-09-23T21:32:10.025Z,62.36914
2022-09-23T21:34:10.034Z,62.11133
2022-09-23T21:36:09.943Z,62.33301
2022-09-23T21:38:10.052Z,62.5
2022-09-23T21:40:10.102Z,62.38379
2022-09-23T21:42:59.017Z,62.01465
2022-09-23T21:44:59.021Z,61.75879
2022-09-23T21:46:59.139Z,62.25195
2022-09-23T21:48:58.936Z,62.16309
2022-09-23T21:50:59.021Z,62.07617
2022-09-23T21:52:58.996Z,62.21973
2022-09-23T21:54:58.942Z,62.14844
2022-09-23T21:58:15.717Z,62.41504
2022-09-23T22:00:15.669Z,62.02734
2022-09-23T22:02:15.669Z,62.12207
2022-09-23T22:04:16.330Z,61.80176
2022-09-23T22:06:15.716Z,62.11523
2022-09-23T22:08:15.707Z,62.57715
2022-09-23T22:10:15.626Z,62.15625
2022-09-23T22:12:56.785Z,62.60742
2022-09-23T22:14:56.762Z,62.41797
2022-09-23T22:16:56.743Z,62.36328
2022-09-23T22:18:56.734Z,62.59766
2022-09-23T22:20:56.752Z,63.33203
2022-09-23T22:22:56.763Z,63.25586
2022-09-23T22:24:56.744Z,62.91504
2022-09-23T22:26:56.768Z,62.7666
2022-09-23T22:28:53.059Z,62.52051
2022-09-23T22:30:53.204Z,62.49414
2022-09-23T22:32:55.448Z,62.99121
2022-09-23T22:34:53.366Z,63.08398
2022-09-23T22:36:53.027Z,63.00879
2022-09-23T22:38:59.378Z,62.71484
2022-09-23T22:40:53.363Z,62.91504
2022-09-23T22:43:56.427Z,62.8125
2022-09-23T22:45:56.392Z,62.93066
2022-09-23T22:47:56.418Z,63.13379
2022-09-23T22:49:56.377Z,63.31055
2022-09-23T22:51:56.390Z,62.9707
2022-09-23T22:53:56.412Z,63.22949
2022-09-23T22:55:56.385Z,63.3291
2022-09-23T22:58:50.474Z,63.22363
2022-09-23T23:00:50.506Z,63.09863
2022-09-23T23:02:50.491Z,63.16602
2022-09-23T23:04:50.472Z,63.31543
2022-09-23T23:06:50.466Z,63.59277
2022-09-23T23:08:50.459Z,63.26465
2022-09-23T23:10:50.558Z,63.39844
2022-09-23T23:13:58.745Z,63.74902
2022-09-23T23:15:58.818Z,64.13086
2022-09-23T23:17:58.741Z,64.17871
2022-09-23T23:19:58.669Z,63.55469
2022-09-23T23:21:58.660Z,63.89844
2022-09-23T23:23:58.689Z,63.83594
2022-09-23T23:25:58.700Z,64.21973
2022-09-23T23:29:02.751Z,64.01563
2022-09-23T23:31:01.850Z,63.48242
2022-09-23T23:33:01.771Z,64.3623
2022-09-23T23:35:01.763Z,63.92969
2022-09-23T23:37:01.823Z,64.52051
2022-09-23T23:39:01.705Z,64.35059
2022-09-23T23:41:01.733Z,63.92871
2022-09-23T23:44:29.556Z,64.12695
2022-09-23T23:46:29.645Z,64.29297
2022-09-23T23:48:29.592Z,64.32617
2022-09-23T23:50:29.600Z,64.66016
2022-09-23T23:52:29.538Z,64.57227
2022-09-23T23:54:29.527Z,64.47754
2022-09-23T23:56:29.554Z,64.2666
2022-09-23T23:59:13.169Z,64.85352
